Date,TemperatureHighF,TemperatureAvgF,TemperatureLowF,DewpointHighF,DewpointAvgF,DewpointLowF,HumidityHigh,HumidityAvg,HumidityLow,PressureMaxIn,PressureMinIn,WindSpeedMaxMPH,WindSpeedAvgMPH,GustSpeedMaxMPH,PrecipitationSumIn
2013-3-1,54.0,47.3,41.4,37.3,32.3,27.5,77,57,38,30.28,30.18,9,3,11,0.05
2013-3-2,50.2,41.3,34.7,35.3,28.7,23.6,84,62,39,30.27,30.18,15,5,23,0.00
2013-3-3,50.4,39.8,33.8,31.0,27.4,23.3,80,62,41,30.37,30.23,9,4,14,0.00
2013-3-4,62.5,43.0,30.6,43.0,25.5,14.7,85,56,17,30.51,30.36,9,3,11,0.00
2013-3-5,68.0,55.3,38.5,58.1,44.0,33.6,100,69,31,30.43,30.04,13,5,18,0.07
2013-3-6,58.8,48.7,40.1,54.0,31.1,23.0,84,52,33,30.41,30.07,17,8,26,0.01
2013-3-7,62.1,46.2,33.4,37.8,31.5,26.6,91,60,28,30.55,30.41,7,3,12,0.00
2013-3-8,64.3,50.6,37.2,38.3,30.9,22.8,96,53,21,30.58,30.45,9,3,13,0.00
2013-3-9,67.3,48.0,32.5,39.3,33.7,27.8,93,64,25,30.63,30.52,10,3,14,0.00
2013-3-10,67.9,53.6,36.2,53.2,43.9,34.6,100,73,46,30.57,30.48,11,3,13,0.00
2013-3-11,71.3,61.3,49.5,61.7,53.2,46.6,100,76,52,30.49,30.19,13,5,18,0.00
2013-3-12,74.8,65.1,53.8,64.9,56.9,40.8,100,77,35,30.28,30.13,13,5,18,0.15
2013-3-13,67.1,55.9,42.8,40.9,28.9,16.8,75,40,15,30.45,30.28,14,4,21,0.00
2013-3-14,59.8,46.6,33.8,35.0,23.2,15.5,86,43,19,30.62,30.44,9,4,15,0.00
2013-3-15,71.8,51.6,34.3,43.6,33.4,20.9,93,58,20,30.55,30.34,9,3,14,0.00
2013-3-16,78.5,55.2,47.0,48.9,40.1,32.6,85,59,21,30.37,30.20,12,5,17,0.00
2013-3-17,75.2,63.7,54.9,55.6,50.8,45.5,92,65,36,30.36,30.25,12,5,18,0.00
2013-3-18,74.3,61.8,54.2,63.0,56.2,49.2,97,83,55,30.36,30.14,12,3,14,0.35
2013-3-19,77.8,63.5,51.1,62.5,48.8,26.9,100,66,17,30.31,30.11,10,3,14,0.04
2013-3-20,67.3,54.9,40.1,41.0,29.8,15.1,90,42,17,30.39,30.15,11,4,14,0.00
2013-3-21,58.9,49.1,39.4,42.1,23.6,3.2,91,43,12,30.26,30.12,14,4,21,0.00
2013-3-22,63.9,47.2,36.9,45.6,31.5,20.8,94,58,27,30.40,30.24,8,2,9,0.01
2013-3-23,67.5,54.8,44.6,54.9,49.9,43.0,97,84,63,30.34,30.12,13,4,19,0.08
2013-3-24,78.3,61.2,53.6,68.8,58.2,51.4,100,91,63,30.16,29.77,13,5,22,0.57
2013-3-25,58.9,51.2,41.2,52.9,31.2,13.7,93,51,19,30.31,29.89,19,7,23,0.00
2013-3-26,52.2,42.7,34.9,28.6,24.1,20.6,69,49,30,30.52,30.31,15,6,28,0.00
2013-3-27,61.4,46.1,33.1,35.7,26.4,21.2,86,51,22,30.59,30.48,10,3,13,0.00
2013-3-28,65.5,47.3,33.4,38.3,28.1,14.2,95,57,14,30.61,30.48,9,3,14,0.00
2013-3-29,65.3,50.2,37.0,45.6,36.2,26.1,100,65,27,30.63,30.50,9,3,12,0.00
2013-3-30,77.8,62.2,48.6,51.7,44.4,35.2,95,58,22,30.52,30.36,12,5,20,0.00
2013-3-31,83.3,67.0,55.2,60.3,54.9,49.0,88,67,42,30.39,30.19,12,4,16,0.02